Time;durP1;ratioP1;P1;durP2;ratioP2;P2;SDS_P1;SDS_P2;PMS_P1;PMS_P2;Temp;Humidity;BMP_temperature;BMP_pressure;BME280_temperature;BME280_humidity;BME280_pressure;Samples;Min_cycle;Max_cycle;Signal;HPM_P1;HPM_P2
2022/07/05 00:00:48;;;;;;;5.53;2.88;;;14.30;99.90;;;;;;5066805;28;20060;-64
2022/07/05 00:03:14;;;;;;;3.25;2.80;;;14.20;99.90;;;;;;5068523;28;20048;-64
2022/07/05 00:05:40;;;;;;;3.65;2.55;;;14.10;99.90;;;;;;5067719;28;20067;-65
2022/07/05 00:08:06;;;;;;;2.33;2.00;;;14.10;99.90;;;;;;5066351;28;20036;-64
2022/07/05 00:10:33;;;;;;;4.35;2.30;;;14.10;99.90;;;;;;5067703;28;20090;-64
2022/07/05 00:12:59;;;;;;;3.60;2.67;;;14.10;99.90;;;;;;5066837;28;20044;-64
2022/07/05 00:15:25;;;;;;;6.70;2.33;;;14.10;99.90;;;;;;5067446;28;20056;-64
2022/07/05 00:17:50;;;;;;;3.38;2.50;;;14.10;99.90;;;;;;5067202;28;20395;-64
2022/07/05 00:20:16;;;;;;;4.55;2.55;;;14.00;99.90;;;;;;5065333;28;20056;-64
2022/07/05 00:22:42;;;;;;;3.33;3.03;;;14.00;99.90;;;;;;5066830;28;20503;-64
2022/07/05 00:25:08;;;;;;;6.20;2.50;;;14.00;99.90;;;;;;5067301;28;20056;-65
2022/07/05 00:27:33;;;;;;;4.38;2.00;;;14.00;99.90;;;;;;5066374;28;20047;-64
2022/07/05 00:29:59;;;;;;;4.55;2.42;;;14.00;99.90;;;;;;5066945;28;20075;-64
2022/07/05 00:32:25;;;;;;;4.43;2.65;;;14.00;99.90;;;;;;5065564;28;20048;-65
2022/07/05 00:34:50;;;;;;;5.63;2.85;;;14.00;99.90;;;;;;5066427;28;20076;-64
2022/07/05 00:37:16;;;;;;;2.63;2.40;;;14.00;99.90;;;;;;5067327;28;20519;-65
2022/07/05 00:39:42;;;;;;;4.15;2.10;;;13.90;99.90;;;;;;5067678;28;20107;-64
2022/07/05 00:42:08;;;;;;;3.65;2.45;;;13.10;99.90;;;;;;5065987;28;20052;-64
2022/07/05 00:44:36;;;;;;;2.85;2.33;;;13.80;99.90;;;;;;5066800;28;20044;-65
2022/07/05 00:47:06;;;;;;;2.85;2.65;;;13.80;99.90;;;;;;5066492;28;20071;-64
2022/07/05 00:49:33;;;;;;;4.00;2.58;;;13.80;99.90;;;;;;5066047;28;20056;-64
2022/07/05 00:51:59;;;;;;;2.70;2.38;;;13.80;99.90;;;;;;5066462;28;20044;-65
2022/07/05 00:54:31;;;;;;;3.17;2.38;;;13.80;99.90;;;;;;5065950;28;20102;-64
2022/07/05 00:56:58;;;;;;;3.15;2.60;;;13.80;99.90;;;;;;5065754;28;20052;-64
2022/07/05 00:59:24;;;;;;;2.85;2.30;;;13.80;99.90;;;;;;5066382;28;20131;-64
2022/07/05 01:01:50;;;;;;;3.50;2.70;;;13.70;99.90;;;;;;5065988;28;20518;-64
2022/07/05 01:04:16;;;;;;;2.88;2.55;;;13.70;99.90;;;;;;5065028;28;20123;-64
2022/07/05 01:06:44;;;;;;;4.78;2.95;;;13.70;99.90;;;;;;5067247;28;20056;-64
2022/07/05 01:09:15;;;;;;;3.28;2.42;;;13.70;99.90;;;;;;5065329;28;20511;-64
2022/07/05 01:11:46;;;;;;;4.15;2.85;;;13.60;99.90;;;;;;5066058;28;20045;-64
2022/07/05 01:14:15;;;;;;;5.57;3.10;;;13.60;99.90;;;;;;5067455;28;20483;-64
2022/07/05 01:16:42;;;;;;;3.88;3.17;;;13.60;99.90;;;;;;5048095;28;20060;-64
2022/07/05 01:19:11;;;;;;;3.58;3.28;;;13.50;99.90;;;;;;5066151;28;20097;-64
2022/07/05 01:21:39;;;;;;;3.78;2.88;;;13.50;99.90;;;;;;5066118;28;20392;-64
2022/07/05 01:24:06;;;;;;;3.15;2.88;;;13.50;99.90;;;;;;5065280;28;20045;-64
2022/07/05 01:26:32;;;;;;;3.03;2.72;;;13.50;99.90;;;;;;5066116;28;20402;-64
2022/07/05 01:28:58;;;;;;;3.85;2.83;;;13.40;99.90;;;;;;5065931;28;20087;-65
2022/07/05 01:31:24;;;;;;;3.40;2.70;;;13.40;99.90;;;;;;5065416;28;20483;-64
2022/07/05 01:33:50;;;;;;;2.80;2.60;;;13.40;99.90;;;;;;5064118;28;20048;-64
2022/07/05 01:36:16;;;;;;;4.18;3.05;;;13.40;99.90;;;;;;5066642;28;20055;-64
2022/07/05 01:38:42;;;;;;;3.60;3.30;;;13.30;99.90;;;;;;5065855;28;20116;-64
2022/07/05 01:41:11;;;;;;;2.88;2.67;;;13.30;99.90;;;;;;5065420;28;20511;-64
2022/07/05 01:43:36;;;;;;;3.38;2.75;;;13.20;99.90;;;;;;5065961;28;20290;-64
2022/07/05 01:46:05;;;;;;;2.72;2.53;;;13.20;99.90;;;;;;5064946;28;20141;-65
2022/07/05 01:48:34;;;;;;;3.15;2.92;;;13.10;99.90;;;;;;5064550;28;20041;-64
2022/07/05 01:51:04;;;;;;;3.10;2.80;;;13.00;99.90;;;;;;5065506;28;20119;-64
2022/07/05 01:53:32;;;;;;;3.97;2.97;;;12.90;99.90;;;;;;5064967;28;20195;-64
2022/07/05 01:55:59;;;;;;;3.40;2.72;;;12.90;99.90;;;;;;5064317;28;20044;-64
2022/07/05 01:58:26;;;;;;;3.20;2.88;;;12.90;99.90;;;;;;5065014;28;20153;-64
2022/07/05 02:00:53;;;;;;;3.10;2.90;;;12.90;99.90;;;;;;5065623;28;20571;-64
2022/07/05 02:03:19;;;;;;;4.05;3.28;;;12.90;99.90;;;;;;5065612;28;20043;-64
2022/07/05 02:05:46;;;;;;;3.83;2.72;;;12.90;99.90;;;;;;5068370;28;20048;-66
2022/07/05 02:08:13;;;;;;;3.90;3.30;;;12.90;99.90;;;;;;5070613;28;20097;-65
2022/07/05 02:10:40;;;;;;;3.90;2.83;;;12.90;99.90;;;;;;5069917;28;20049;-65
2022/07/05 02:13:07;;;;;;;5.88;3.15;;;12.90;99.90;;;;;;5051003;28;20692;-65
2022/07/05 02:15:34;;;;;;;3.05;2.83;;;12.80;99.90;;;;;;5068415;28;20056;-65
2022/07/05 02:18:01;;;;;;;4.40;3.70;;;12.80;99.90;;;;;;5068380;28;20399;-65
2022/07/05 02:20:27;;;;;;;4.57;3.35;;;12.80;99.90;;;;;;5050695;28;20052;-65
2022/07/05 02:22:53;;;;;;;3.30;3.00;;;12.70;99.90;;;;;;5069298;28;20526;-65
2022/07/05 02:25:19;;;;;;;4.25;3.20;;;12.70;99.90;;;;;;5069938;28;20040;-64
2022/07/05 02:27:45;;;;;;;6.45;3.88;;;12.60;99.90;;;;;;5069345;28;20144;-65
2022/07/05 02:30:11;;;;;;;4.45;3.53;;;12.60;99.90;;;;;;5068123;28;20559;-65
2022/07/05 02:32:37;;;;;;;4.50;3.22;;;12.60;99.90;;;;;;5069718;28;20048;-65
2022/07/05 02:35:04;;;;;;;4.07;3.78;;;12.60;99.90;;;;;;5068744;28;20419;-65
2022/07/05 02:37:30;;;;;;;4.47;3.55;;;12.60;99.90;;;;;;5067983;28;20442;-65
2022/07/05 02:39:56;;;;;;;4.00;3.70;;;12.60;99.90;;;;;;5067589;28;20272;-65
2022/07/05 02:42:22;;;;;;;4.13;3.35;;;12.60;99.90;;;;;;5068512;28;20048;-64
2022/07/05 02:44:48;;;;;;;4.20;3.90;;;12.60;99.90;;;;;;5068953;28;20045;-65
2022/07/05 02:47:13;;;;;;;4.18;3.35;;;12.50;99.90;;;;;;5069614;28;20045;-65
2022/07/05 02:49:39;;;;;;;3.83;3.53;;;12.50;99.90;;;;;;5068214;28;20086;-65
2022/07/05 02:52:05;;;;;;;3.78;3.00;;;12.50;99.90;;;;;;5068501;28;20361;-65
2022/07/05 02:54:30;;;;;;;3.63;3.38;;;12.50;99.90;;;;;;5068848;28;20040;-65
2022/07/05 02:56:57;;;;;;;4.43;4.03;;;12.50;99.90;;;;;;5068494;28;20067;-65
2022/07/05 02:59:22;;;;;;;5.03;3.75;;;12.50;99.90;;;;;;5067033;28;20049;-65
2022/07/05 03:01:48;;;;;;;4.35;3.95;;;12.50;99.90;;;;;;5067745;28;20106;-64
2022/07/05 03:04:14;;;;;;;5.10;3.97;;;12.80;99.90;;;;;;5051208;28;20487;-64
2022/07/05 03:06:39;;;;;;;4.00;3.33;;;12.50;99.90;;;;;;5068582;28;20040;-65
2022/07/05 03:09:05;;;;;;;3.70;3.40;;;12.40;99.90;;;;;;5066743;28;20080;-65
2022/07/05 03:11:30;;;;;;;3.53;3.20;;;12.50;99.90;;;;;;5067181;28;20040;-65
2022/07/05 03:13:56;;;;;;;5.07;3.72;;;12.50;99.90;;;;;;5067315;28;20372;-65
2022/07/05 03:16:23;;;;;;;3.90;3.60;;;12.50;99.90;;;;;;5065745;28;20132;-65
2022/07/05 03:18:50;;;;;;;7.20;4.22;;;12.50;99.90;;;;;;5067312;28;20364;-64
2022/07/05 03:21:15;;;;;;;5.38;3.85;;;12.50;99.90;;;;;;5069001;28;20458;-65
2022/07/05 03:23:41;;;;;;;3.58;3.28;;;12.50;99.90;;;;;;5068063;28;20045;-65
2022/07/05 03:26:07;;;;;;;4.65;3.80;;;12.50;99.90;;;;;;5068184;28;20048;-64
2022/07/05 03:28:32;;;;;;;5.78;4.05;;;12.40;99.90;;;;;;5068595;28;20055;-65
2022/07/05 03:30:58;;;;;;;4.55;4.18;;;12.50;99.90;;;;;;5067219;28;20055;-64
2022/07/05 03:33:24;;;;;;;4.53;4.13;;;12.40;99.90;;;;;;5068091;28;20163;-65
2022/07/05 03:35:49;;;;;;;8.32;4.32;;;12.40;99.90;;;;;;5067888;28;20041;-65
2022/07/05 03:38:15;;;;;;;4.20;3.83;;;12.40;99.90;;;;;;5068244;28;20044;-65
2022/07/05 03:40:41;;;;;;;4.22;3.83;;;12.40;99.90;;;;;;5068438;28;20127;-64
2022/07/05 03:43:06;;;;;;;4.40;4.05;;;12.40;99.90;;;;;;5067693;28;20398;-64
2022/07/05 03:45:32;;;;;;;4.75;4.35;;;12.50;99.90;;;;;;5067341;28;20037;-65
2022/07/05 03:47:59;;;;;;;4.75;4.28;;;12.40;99.90;;;;;;5066685;28;20052;-65
2022/07/05 03:50:25;;;;;;;12.43;4.40;;;12.40;99.90;;;;;;5068004;28;20047;-65
2022/07/05 03:52:50;;;;;;;5.55;4.35;;;12.40;99.90;;;;;;5067159;28;20041;-65
2022/07/05 03:55:16;;;;;;;5.63;4.20;;;12.40;99.90;;;;;;5068174;28;20077;-65
2022/07/05 03:57:42;;;;;;;4.30;3.97;;;12.40;99.90;;;;;;5068317;28;20063;-64
2022/07/05 04:00:09;;;;;;;4.93;4.53;;;12.40;99.90;;;;;;5066666;28;20078;-65
2022/07/05 04:02:34;;;;;;;5.30;4.10;;;12.40;99.90;;;;;;5067566;28;20234;-65
2022/07/05 04:05:00;;;;;;;4.97;3.92;;;12.40;99.90;;;;;;5066488;28;20549;-65
2022/07/05 04:07:26;;;;;;;7.95;4.55;;;12.40;99.90;;;;;;5066453;28;20059;-65
2022/07/05 04:09:51;;;;;;;4.55;4.15;;;12.40;99.90;;;;;;5067534;28;20522;-64
2022/07/05 04:12:17;;;;;;;5.32;4.05;;;12.50;99.90;;;;;;5066995;28;20045;-64
2022/07/05 04:14:43;;;;;;;4.40;4.05;;;12.40;99.90;;;;;;5068525;28;20084;-65
2022/07/05 04:17:08;;;;;;;4.90;3.88;;;12.50;99.90;;;;;;5067106;28;20517;-65
2022/07/05 04:19:34;;;;;;;3.60;3.35;;;12.50;99.90;;;;;;5065632;28;20049;-65
2022/07/05 04:21:59;;;;;;;7.88;4.18;;;12.50;99.90;;;;;;5067012;28;20407;-65
2022/07/05 04:24:25;;;;;;;5.03;4.53;;;12.50;99.90;;;;;;5066134;28;20058;-64
2022/07/05 04:26:51;;;;;;;4.50;4.10;;;12.50;99.90;;;;;;5066356;28;20135;-65
2022/07/05 04:29:17;;;;;;;4.22;3.83;;;12.60;99.90;;;;;;5067427;28;20044;-65
2022/07/05 04:31:42;;;;;;;4.50;4.10;;;12.50;99.90;;;;;;5067767;28;20459;-65
2022/07/05 04:34:08;;;;;;;5.03;4.53;;;12.60;99.90;;;;;;5065799;28;20041;-65
2022/07/05 04:36:34;;;;;;;4.68;4.28;;;12.60;99.90;;;;;;5067172;28;20087;-64
2022/07/05 04:38:59;;;;;;;5.57;5.03;;;12.70;99.90;;;;;;5066780;28;20075;-65
2022/07/05 04:41:25;;;;;;;5.32;4.18;;;12.60;99.90;;;;;;5066449;28;20048;-64
2022/07/05 04:43:50;;;;;;;13.05;4.15;;;12.70;99.90;;;;;;5066614;28;20036;-65
2022/07/05 04:46:17;;;;;;;3.85;3.55;;;12.80;99.90;;;;;;5067085;28;20052;-65
2022/07/05 04:48:42;;;;;;;3.55;3.25;;;12.80;99.90;;;;;;5066616;28;20483;-65
2022/07/05 04:51:08;;;;;;;4.78;3.97;;;12.90;99.90;;;;;;5066236;28;20131;-64
2022/07/05 04:53:34;;;;;;;3.85;3.35;;;13.00;99.90;;;;;;5067059;28;20093;-65
2022/07/05 04:55:59;;;;;;;3.90;3.60;;;13.00;99.90;;;;;;5065812;28;20048;-65
2022/07/05 04:58:25;;;;;;;4.38;3.42;;;13.20;99.90;;;;;;5066378;28;20346;-64
2022/07/05 05:00:50;;;;;;;9.35;3.88;;;13.20;99.90;;;;;;5066398;28;20044;-65
2022/07/05 05:03:17;;;;;;;5.60;4.00;;;13.30;99.90;;;;;;5064731;28;20485;-64
2022/07/05 05:05:42;;;;;;;3.75;3.45;;;13.30;99.90;;;;;;5065570;28;20048;-65
2022/07/05 05:08:08;;;;;;;4.90;3.75;;;13.40;99.90;;;;;;5066400;28;20078;-65
2022/07/05 05:10:33;;;;;;;3.88;3.58;;;13.50;99.90;;;;;;5065987;28;20040;-65
2022/07/05 05:12:59;;;;;;;6.50;4.00;;;13.60;99.90;;;;;;5065879;28;20044;-65
2022/07/05 05:15:24;;;;;;;4.22;3.45;;;13.70;99.90;;;;;;5065729;28;20040;-65
2022/07/05 05:17:50;;;;;;;5.22;3.53;;;13.70;99.90;;;;;;5065955;28;20490;-65
2022/07/05 05:20:17;;;;;;;3.97;3.58;;;13.80;99.90;;;;;;5066523;28;20078;-65
2022/07/05 05:22:43;;;;;;;7.85;3.40;;;13.90;99.90;;;;;;5065916;28;20499;-65
2022/07/05 05:25:10;;;;;;;3.70;3.38;;;14.00;99.90;;;;;;5065960;28;20047;-65
2022/07/05 05:27:43;;;;;;;4.45;2.88;;;14.00;99.90;;;;;;5065896;28;20499;-65
2022/07/05 05:30:10;;;;;;;3.38;3.13;;;14.10;99.90;;;;;;5065188;28;20120;-65
2022/07/05 05:32:36;;;;;;;4.38;3.03;;;14.20;99.90;;;;;;5065795;28;20606;-65
2022/07/05 05:35:01;;;;;;;4.57;3.15;;;14.30;99.90;;;;;;5066034;28;20072;-65
2022/07/05 05:37:27;;;;;;;3.17;2.88;;;14.40;99.90;;;;;;5065297;28;20522;-64
2022/07/05 05:39:53;;;;;;;5.97;3.22;;;14.50;99.90;;;;;;5065314;28;20040;-64
2022/07/05 05:42:18;;;;;;;4.07;2.90;;;14.50;99.90;;;;;;5064551;28;20044;-64
2022/07/05 05:44:44;;;;;;;4.85;3.42;;;14.70;99.90;;;;;;5064475;28;20041;-64
2022/07/05 05:47:09;;;;;;;5.32;2.75;;;14.80;99.90;;;;;;5065595;28;20128;-64
2022/07/05 05:49:35;;;;;;;4.10;2.47;;;14.80;99.90;;;;;;5065775;28;20055;-64
2022/07/05 05:52:01;;;;;;;4.75;2.45;;;15.00;99.90;;;;;;5064974;28;20474;-64
2022/07/05 05:54:26;;;;;;;2.30;2.10;;;15.00;99.90;;;;;;5065697;28;20052;-64
2022/07/05 05:56:52;;;;;;;5.07;2.15;;;15.10;99.90;;;;;;5065404;28;20091;-64
2022/07/05 05:59:17;;;;;;;2.90;2.30;;;15.20;99.90;;;;;;5065054;28;20067;-64
2022/07/05 06:01:43;;;;;;;5.35;1.98;;;15.30;99.90;;;;;;5066230;28;20049;-64
2022/07/05 06:04:08;;;;;;;3.15;1.83;;;15.30;99.90;;;;;;5065522;28;20041;-64
2022/07/05 06:06:34;;;;;;;3.83;1.52;;;15.40;99.90;;;;;;5063542;28;20055;-64
2022/07/05 06:09:00;;;;;;;4.47;1.75;;;15.40;99.90;;;;;;5065138;28;20044;-64
2022/07/05 06:11:25;;;;;;;2.58;1.67;;;15.40;99.90;;;;;;5065397;28;20116;-65
2022/07/05 06:13:51;;;;;;;2.45;1.40;;;15.40;99.90;;;;;;5064840;28;20420;-64
2022/07/05 06:16:17;;;;;;;3.00;1.73;;;15.50;99.90;;;;;;5065833;28;20044;-64
2022/07/05 06:18:42;;;;;;;2.08;1.35;;;15.60;99.90;;;;;;5065556;28;20465;-64
2022/07/05 06:21:08;;;;;;;5.97;1.73;;;15.60;99.90;;;;;;5063675;28;20061;-64
2022/07/05 06:23:33;;;;;;;1.80;1.17;;;15.70;99.90;;;;;;5065324;28;20045;-64
2022/07/05 06:25:59;;;;;;;4.38;1.35;;;15.70;99.90;;;;;;5064852;28;20040;-64
2022/07/05 06:28:25;;;;;;;5.13;1.30;;;16.00;99.90;;;;;;5065818;28;20043;-65
2022/07/05 06:30:52;;;;;;;10.82;1.75;;;15.80;99.90;;;;;;5063408;28;20044;-64
2022/07/05 06:33:18;;;;;;;3.40;1.30;;;15.90;99.90;;;;;;5063405;28;20053;-64
2022/07/05 06:35:44;;;;;;;3.47;1.20;;;16.10;99.90;;;;;;5066170;28;20088;-65
2022/07/05 06:38:10;;;;;;;4.70;1.25;;;16.10;99.90;;;;;;5064996;28;20083;-64
2022/07/05 06:40:38;;;;;;;3.15;1.10;;;15.90;99.90;;;;;;5064653;28;20446;-64
2022/07/05 06:43:09;;;;;;;1.25;0.70;;;16.20;99.90;;;;;;5065079;28;20047;-65
2022/07/05 06:45:35;;;;;;;3.47;1.27;;;16.10;99.90;;;;;;5065094;28;20174;-64
2022/07/05 06:48:03;;;;;;;8.05;1.42;;;16.20;99.90;;;;;;5064333;28;20040;-64
2022/07/05 06:50:32;;;;;;;4.65;1.17;;;16.30;99.90;;;;;;5063931;28;20064;-65
2022/07/05 06:52:58;;;;;;;4.22;1.35;;;16.30;99.90;;;;;;5068127;28;20049;-65
2022/07/05 06:55:25;;;;;;;1.27;0.85;;;16.50;99.90;;;;;;5067976;28;20571;-64
2022/07/05 06:58:07;;;;;;;4.10;0.98;;;16.60;99.90;;;;;;5068382;28;20511;-64
2022/07/05 07:00:33;;;;;;;2.13;1.10;;;16.80;99.90;;;;;;5069176;28;20095;-65
2022/07/05 07:02:59;;;;;;;4.65;1.08;;;17.00;99.90;;;;;;5068006;28;20448;-64
2022/07/05 07:05:25;;;;;;;3.80;1.00;;;17.10;99.90;;;;;;5068528;28;20516;-64
2022/07/05 07:10:36;;;;;;;7.10;1.15;;;17.20;99.90;;;;;;5068502;28;20052;-65
2022/07/05 07:13:02;;;;;;;5.30;0.85;;;17.20;99.90;;;;;;5068258;28;20051;-65
2022/07/05 07:15:29;;;;;;;1.65;0.90;;;17.20;99.90;;;;;;5068151;28;20127;-64
2022/07/05 07:17:55;;;;;;;2.75;0.65;;;17.20;99.90;;;;;;5068720;28;20044;-64
2022/07/05 07:20:21;;;;;;;3.97;1.10;;;17.20;99.90;;;;;;5068453;28;20055;-65
2022/07/05 07:22:47;;;;;;;3.22;0.90;;;17.20;99.90;;;;;;5068098;28;20095;-64
2022/07/05 07:25:12;;;;;;;1.92;0.50;;;17.20;99.90;;;;;;5069021;28;20080;-64
2022/07/05 07:27:46;;;;;;;1.70;0.55;;;17.30;99.90;;;;;;5067262;28;20087;-64
2022/07/05 07:30:13;;;;;;;2.47;0.73;;;17.30;99.90;;;;;;5068295;28;20052;-64
2022/07/05 07:32:39;;;;;;;3.72;0.77;;;17.20;99.90;;;;;;5068048;28;20563;-64
2022/07/05 07:35:06;;;;;;;3.50;0.50;;;17.30;99.90;;;;;;5067896;28;20032;-65
2022/07/05 07:37:31;;;;;;;3.45;0.80;;;17.20;99.90;;;;;;5067461;28;20514;-64
2022/07/05 07:39:58;;;;;;;1.88;0.90;;;17.20;99.90;;;;;;5068187;28;20044;-65
2022/07/05 07:42:24;;;;;;;7.28;1.45;;;17.30;99.90;;;;;;5066655;28;20048;-65
2022/07/05 07:44:49;;;;;;;1.80;0.80;;;17.30;99.90;;;;;;5067178;28;20074;-64
2022/07/05 07:47:15;;;;;;;3.50;0.90;;;17.40;99.90;;;;;;5068444;28;20411;-65
2022/07/05 07:49:41;;;;;;;5.45;1.00;;;17.50;99.90;;;;;;5068048;28;20129;-64
2022/07/05 07:52:07;;;;;;;1.52;0.70;;;17.30;99.90;;;;;;5067105;28;20048;-64
2022/07/05 07:54:33;;;;;;;2.33;1.08;;;17.30;99.90;;;;;;5068023;28;20045;-64
2022/07/05 07:56:59;;;;;;;7.85;0.77;;;17.50;99.90;;;;;;5066969;28;20051;-64
2022/07/05 07:59:25;;;;;;;3.22;0.60;;;17.20;99.90;;;;;;5067573;28;20137;-64
2022/07/05 08:01:51;;;;;;;1.55;0.75;;;17.20;99.90;;;;;;5067553;28;20118;-64
2022/07/05 08:04:17;;;;;;;3.55;0.75;;;17.20;99.90;;;;;;5067256;28;20041;-64
2022/07/05 08:06:44;;;;;;;2.72;0.52;;;17.20;99.90;;;;;;5068115;28;20036;-65
2022/07/05 08:09:09;;;;;;;2.70;0.80;;;17.20;99.90;;;;;;5067342;28;20056;-64
2022/07/05 08:11:35;;;;;;;4.53;0.80;;;17.30;99.90;;;;;;5066876;28;20155;-64
2022/07/05 08:14:01;;;;;;;8.98;0.60;;;17.40;99.90;;;;;;5067239;28;20471;-65
2022/07/05 08:16:26;;;;;;;2.05;0.60;;;17.40;99.90;;;;;;5067136;28;20048;-64
2022/07/05 08:21:39;;;;;;;3.17;0.70;;;17.50;99.90;;;;;;5067460;28;20341;-64
2022/07/05 08:24:11;;;;;;;2.10;0.85;;;17.50;99.90;;;;;;5067198;28;20472;-64
2022/07/05 08:26:38;;;;;;;4.57;1.13;;;17.50;99.90;;;;;;5066279;28;20276;-64
2022/07/05 08:29:08;;;;;;;5.10;1.00;;;17.70;99.90;;;;;;5066969;28;20392;-64
2022/07/05 08:31:49;;;;;;;5.05;1.10;;;17.90;99.90;;;;;;5065855;28;20048;-64
2022/07/05 08:34:15;;;;;;;4.57;0.90;;;17.80;99.90;;;;;;5067048;28;20523;-64
2022/07/05 08:36:42;;;;;;;4.28;0.57;;;18.00;99.90;;;;;;5066915;28;20052;-64
2022/07/05 08:39:08;;;;;;;4.88;0.73;;;18.10;99.90;;;;;;5066664;28;20088;-64
2022/07/05 08:41:39;;;;;;;1.92;0.63;;;18.10;99.90;;;;;;5065339;28;20048;-64
2022/07/05 08:44:05;;;;;;;3.33;1.10;;;18.20;99.90;;;;;;5066533;28;20106;-64
2022/07/05 08:46:32;;;;;;;3.08;0.93;;;18.30;99.90;;;;;;5066039;28;20052;-64
2022/07/05 08:49:03;;;;;;;2.00;0.50;;;18.40;99.90;;;;;;5066769;28;20518;-64
2022/07/05 08:51:32;;;;;;;1.85;0.50;;;18.30;99.90;;;;;;5066894;28;20055;-65
2022/07/05 08:53:57;;;;;;;1.65;0.50;;;18.30;99.90;;;;;;5066088;28;20254;-63
2022/07/05 08:56:23;;;;;;;2.40;0.60;;;18.20;99.90;;;;;;5067029;28;20045;-64
2022/07/05 08:58:49;;;;;;;2.65;0.73;;;18.20;99.90;;;;;;5064955;28;20459;-64
2022/07/05 09:01:16;;;;;;;4.25;1.17;;;18.20;99.90;;;;;;5066426;28;20127;-63
2022/07/05 09:03:52;;;;;;;2.90;0.80;;;18.20;99.90;;;;;;5067090;28;20053;-64
2022/07/05 09:06:22;;;;;;;1.42;0.70;;;18.20;99.90;;;;;;5066337;28;20314;-64
2022/07/05 09:08:53;;;;;;;1.60;0.50;;;18.30;99.90;;;;;;5065448;28;20090;-64
2022/07/05 09:11:24;;;;;;;2.30;0.70;;;18.40;99.90;;;;;;5066208;28;20052;-64
2022/07/05 09:13:50;;;;;;;1.48;0.88;;;18.40;99.90;;;;;;5066071;28;20058;-64
2022/07/05 09:16:17;;;;;;;4.75;0.90;;;18.50;99.90;;;;;;5065499;28;20562;-64
2022/07/05 09:18:47;;;;;;;4.72;0.68;;;18.40;99.90;;;;;;5066824;28;20040;-64
2022/07/05 09:21:22;;;;;;;4.15;0.73;;;18.20;99.90;;;;;;5066947;28;20052;-64
2022/07/05 09:24:09;;;;;;;3.15;0.70;;;18.30;99.90;;;;;;5065768;28;20044;-64
2022/07/05 09:26:44;;;;;;;3.90;0.77;;;18.30;99.90;;;;;;5066531;28;20448;-64
2022/07/05 09:29:16;;;;;;;5.78;1.08;;;18.50;99.90;;;;;;5064960;28;20037;-65
2022/07/05 09:31:45;;;;;;;2.47;0.75;;;18.70;99.90;;;;;;5066698;28;20098;-64
2022/07/05 09:34:13;;;;;;;2.42;0.55;;;18.70;99.90;;;;;;5066071;28;20094;-64
2022/07/05 09:36:55;;;;;;;4.75;1.02;;;18.60;99.90;;;;;;5065275;28;20067;-64
2022/07/05 09:39:29;;;;;;;1.42;0.57;;;18.60;99.90;;;;;;5066020;28;20087;-64
2022/07/05 09:42:22;;;;;;;3.97;0.82;;;18.40;99.90;;;;;;5065643;28;20052;-64
2022/07/05 09:44:48;;;;;;;;;;;18.30;99.90;;;;;;5065479;28;20044;-64
2022/07/05 09:47:19;;;;;;;2.13;0.82;;;18.30;99.90;;;;;;5066649;28;19920;-64
2022/07/05 09:49:47;;;;;;;3.30;0.73;;;18.50;99.90;;;;;;5065738;28;20036;-64
2022/07/05 09:52:34;;;;;;;3.83;1.17;;;18.60;99.90;;;;;;5064912;28;20048;-64
2022/07/05 09:55:19;;;;;;;4.95;1.25;;;18.70;99.90;;;;;;5065504;28;20079;-64
2022/07/05 09:57:50;;;;;;;3.05;0.88;;;18.90;99.90;;;;;;5065725;28;20048;-64
2022/07/05 10:00:20;;;;;;;1.70;0.90;;;18.90;99.90;;;;;;5066214;28;20415;-64
2022/07/05 10:02:51;;;;;;;1.52;0.60;;;18.90;99.90;;;;;;5066153;28;20562;-64
2022/07/05 10:05:19;;;;;;;3.80;1.15;;;18.90;99.90;;;;;;5065234;28;20044;-64
2022/07/05 10:07:48;;;;;;;1.02;0.57;;;18.80;99.90;;;;;;5066523;28;20079;-64
2022/07/05 10:10:18;;;;;;;1.38;0.65;;;18.80;99.90;;;;;;5066411;28;20415;-64
2022/07/05 10:12:49;;;;;;;1.60;0.80;;;18.70;99.90;;;;;;5065448;28;20497;-64
2022/07/05 10:15:18;;;;;;;2.88;0.85;;;18.60;99.90;;;;;;5066261;28;20080;-64
2022/07/05 10:18:04;;;;;;;3.50;0.90;;;18.60;99.90;;;;;;5064054;28;20441;-64
2022/07/05 10:20:33;;;;;;;3.03;0.85;;;18.70;99.90;;;;;;5064577;28;20055;-64
2022/07/05 10:23:01;;;;;;;3.78;0.90;;;18.80;99.90;;;;;;5065462;28;20044;-64
2022/07/05 10:25:28;;;;;;;2.42;0.50;;;18.90;99.90;;;;;;5065188;28;20124;-64
2022/07/05 10:27:56;;;;;;;1.80;0.68;;;19.00;99.90;;;;;;5051429;28;20048;-64
2022/07/05 10:30:23;;;;;;;3.90;0.88;;;19.10;99.90;;;;;;5069242;28;20052;-64
2022/07/05 10:32:49;;;;;;;4.82;0.80;;;19.20;99.90;;;;;;5068415;28;20492;-64
2022/07/05 10:35:17;;;;;;;4.85;0.80;;;19.30;99.90;;;;;;5070185;28;20045;-64
2022/07/05 10:37:43;;;;;;;1.75;0.65;;;19.30;99.90;;;;;;5069803;28;20055;-63
2022/07/05 10:40:10;;;;;;;4.38;1.10;;;19.20;99.90;;;;;;5068382;28;20094;-64
2022/07/05 10:42:40;;;;;;;1.98;0.82;;;19.20;99.90;;;;;;5069288;28;20413;-64
2022/07/05 10:45:47;;;;;;;2.45;0.57;;;19.30;99.90;;;;;;5068756;28;20562;-64
2022/07/05 10:48:21;;;;;;;1.73;0.60;;;19.70;99.90;;;;;;4990760;28;20069;-64
2022/07/05 10:50:57;;;;;;;2.13;0.70;;;20.10;99.90;;;;;;5061807;28;20064;-64
2022/07/05 10:53:54;;;;;;;2.90;0.85;;;20.30;99.90;;;;;;5068850;28;20048;-64
2022/07/05 10:56:20;;;;;;;3.55;0.80;;;20.20;99.90;;;;;;5047337;28;20050;-64
2022/07/05 10:58:47;;;;;;;4.57;0.70;;;20.10;99.90;;;;;;5068957;28;20504;-64
2022/07/05 11:01:15;;;;;;;1.85;0.73;;;19.80;99.90;;;;;;5068709;28;20057;-65
2022/07/05 11:03:43;;;;;;;3.95;0.60;;;19.70;99.90;;;;;;5069456;28;20048;-64
2022/07/05 11:06:22;;;;;;;3.00;0.50;;;19.60;99.90;;;;;;5068441;28;20046;-64
2022/07/05 11:09:09;;;;;;;5.28;1.08;;;19.70;99.90;;;;;;5067873;28;20128;-64
2022/07/05 11:11:43;;;;;;;3.33;0.98;;;19.70;99.90;;;;;;5057748;28;20052;-65
2022/07/05 11:14:21;;;;;;;1.77;0.50;;;19.70;99.90;;;;;;5066238;28;20070;-64
2022/07/05 11:17:08;;;;;;;5.53;1.20;;;19.60;99.90;;;;;;5068600;28;20052;-64
2022/07/05 11:19:34;;;;;;;2.72;0.38;;;19.60;99.90;;;;;;5068249;28;20044;-64
2022/07/05 11:22:04;;;;;;;2.53;1.02;;;19.60;99.90;;;;;;5067717;28;20116;-65
2022/07/05 11:24:35;;;;;;;2.75;0.60;;;19.50;99.90;;;;;;5068431;28;20090;-64
2022/07/05 11:27:03;;;;;;;2.30;0.40;;;19.30;99.90;;;;;;5068329;28;20110;-64
2022/07/05 11:29:48;;;;;;;1.45;0.30;;;19.20;99.90;;;;;;5067865;28;20045;-64
2022/07/05 11:32:36;;;;;;;1.05;0.63;;;19.80;99.90;;;;;;5067808;28;20396;-64
2022/07/05 11:35:20;;;;;;;1.92;0.63;;;18.90;99.90;;;;;;5067419;28;20076;-65
2022/07/05 11:38:12;;;;;;;1.10;0.40;;;18.90;99.90;;;;;;5067647;28;20066;-65
2022/07/05 11:40:38;;;;;;;3.63;0.82;;;18.90;99.90;;;;;;5063087;28;20060;-65
2022/07/05 11:43:06;;;;;;;3.22;0.88;;;18.90;99.90;;;;;;5065822;28;20297;-65
2022/07/05 11:45:33;;;;;;;7.18;1.23;;;18.90;99.90;;;;;;5068373;28;20056;-65
2022/07/05 11:47:58;;;;;;;4.88;0.75;;;18.80;99.90;;;;;;5067832;28;20128;-64
2022/07/05 11:50:30;;;;;;;2.67;0.90;;;18.60;99.90;;;;;;5065868;28;20140;-65
2022/07/05 11:52:56;;;;;;;5.72;1.13;;;18.50;99.90;;;;;;5067742;28;20040;-65
2022/07/05 11:55:26;;;;;;;6.32;1.25;;;18.30;99.90;;;;;;5067756;28;20560;-64
2022/07/05 11:57:53;;;;;;;5.60;0.82;;;18.20;99.90;;;;;;5067290;28;20051;-65
2022/07/05 12:00:40;;;;;;;2.42;0.80;;;18.10;99.90;;;;;;5067706;28;20114;-65
2022/07/05 12:03:13;;;;;;;6.40;1.63;;;18.00;99.90;;;;;;5067537;28;20147;-64
2022/07/05 12:05:40;;;;;;;4.35;0.82;;;18.00;99.90;;;;;;5067404;28;20048;-64
2022/07/05 12:08:06;;;;;;;4.97;1.38;;;18.00;99.90;;;;;;5067431;28;20124;-64
2022/07/05 12:13:20;;;;;;;4.05;1.05;;;18.10;99.90;;;;;;5047924;28;20041;-64
2022/07/05 12:15:46;;;;;;;1.90;0.73;;;18.30;99.90;;;;;;5067826;28;20564;-64
2022/07/05 12:18:14;;;;;;;4.70;0.77;;;18.50;99.90;;;;;;5068534;28;20053;-64
2022/07/05 12:20:40;;;;;;;3.40;0.90;;;18.90;99.90;;;;;;5068928;28;20266;-65
2022/07/05 12:23:06;;;;;;;2.45;0.90;;;19.20;99.90;;;;;;5068429;28;20044;-65
2022/07/05 12:25:33;;;;;;;2.83;0.82;;;19.20;99.90;;;;;;5067808;28;20056;-65
2022/07/05 12:28:00;;;;;;;3.30;0.70;;;19.20;99.90;;;;;;5065475;28;20052;-64
2022/07/05 12:30:29;;;;;;;3.55;0.95;;;19.20;99.90;;;;;;5067499;28;20036;-65
2022/07/05 12:33:03;;;;;;;2.72;0.80;;;19.20;99.90;;;;;;5064697;28;20087;-65
2022/07/05 12:35:33;;;;;;;3.05;0.52;;;19.30;99.90;;;;;;5065715;28;20129;-64
2022/07/05 12:38:03;;;;;;;4.65;0.98;;;19.20;99.90;;;;;;5066819;28;20060;-64
2022/07/05 12:40:30;;;;;;;1.60;0.75;;;19.20;99.90;;;;;;5066409;28;20388;-65
2022/07/05 12:43:07;;;;;;;1.55;0.68;;;19.20;99.90;;;;;;5066717;28;20269;-65
2022/07/05 12:45:33;;;;;;;5.43;0.75;;;19.10;99.90;;;;;;5066096;28;20044;-65
2022/07/05 12:48:04;;;;;;;1.98;1.00;;;19.00;99.90;;;;;;5066998;28;20059;-65
2022/07/05 12:50:45;;;;;;;7.40;0.83;;;18.80;99.90;;;;;;5066217;28;20051;-65
2022/07/05 12:58:50;;;;;;;4.22;1.08;;;19.00;99.90;;;;;;5066561;28;20069;-65
2022/07/05 13:01:20;;;;;;;1.77;0.63;;;19.00;99.90;;;;;;5066654;28;20127;-65
2022/07/05 13:04:03;;;;;;;1.33;0.60;;;19.00;99.90;;;;;;5066886;28;20127;-65
2022/07/05 13:06:47;;;;;;;3.88;0.50;;;18.90;99.90;;;;;;5065853;28;20051;-65